Time;durP1;ratioP1;P1;durP2;ratioP2;P2;SDS_P1;SDS_P2;PMS_P1;PMS_P2;Temp;Humidity;BMP_temperature;BMP_pressure;BME280_temperature;BME280_humidity;BME280_pressure;Samples;Min_cycle;Max_cycle;Signal;HPM_P1;HPM_P2
2023/06/10 00:00:13;;;;;;;10.27;6.25;;;;;;;19.90;86.34;99892.44;4916154;29;20036;-69
2023/06/10 00:02:39;;;;;;;13.63;6.50;;;;;;;19.71;88.05;99874.28;4916224;29;20032;-66
2023/06/10 00:05:04;;;;;;;10.60;5.45;;;;;;;19.53;86.64;99843.03;4916381;29;20028;-69
2023/06/10 00:07:30;;;;;;;10.00;6.03;;;;;;;19.80;86.41;99894.25;4899600;29;20047;-68
2023/06/10 00:09:55;;;;;;;11.15;6.07;;;;;;;19.17;87.75;99822.41;4916306;29;20028;-65
2023/06/10 00:12:20;;;;;;;10.55;5.65;;;;;;;19.39;87.93;99887.66;4899208;29;20040;-71
2023/06/10 00:14:48;;;;;;;12.57;5.20;;;;;;;19.27;87.51;99890.38;4916442;29;20024;-65
2023/06/10 00:17:15;;;;;;;7.60;5.10;;;;;;;18.98;87.78;99842.63;4916363;29;20024;-64
2023/06/10 00:19:40;;;;;;;17.60;5.38;;;;;;;18.87;87.30;99824.38;4915763;29;20515;-68
2023/06/10 00:22:06;;;;;;;10.27;4.90;;;;;;;18.87;86.89;99819.13;4916350;29;20039;-67
2023/06/10 00:24:31;;;;;;;9.27;4.80;;;;;;;18.78;87.56;99827.06;4916004;29;20099;-66
2023/06/10 00:26:57;;;;;;;11.30;5.18;;;;;;;18.95;88.57;99878.41;4915849;29;20035;-65
2023/06/10 00:29:22;;;;;;;10.27;5.03;;;;;;;19.05;88.28;99898.38;4916019;29;20039;-65
2023/06/10 00:31:47;;;;;;;9.32;5.03;;;;;;;19.08;87.59;99904.47;4915721;29;20032;-64
2023/06/10 00:34:13;;;;;;;10.40;4.95;;;;;;;18.82;88.10;99861.91;4915377;29;20475;-65
2023/06/10 00:36:38;;;;;;;10.70;6.18;;;;;;;19.03;87.65;99884.47;4915749;29;20404;-65
2023/06/10 00:39:04;;;;;;;8.68;5.60;;;;;;;19.24;86.30;99900.00;4915655;29;20084;-66
2023/06/10 00:41:30;;;;;;;9.18;5.53;;;;;;;19.33;85.82;99895.56;4915637;29;20047;-65
2023/06/10 00:43:56;;;;;;;7.93;5.53;;;;;;;19.37;85.56;99894.66;4915724;29;20024;-65
2023/06/10 00:46:23;;;;;;;10.85;5.05;;;;;;;19.31;85.32;99897.31;4915957;29;20067;-66
2023/06/10 00:48:49;;;;;;;9.13;5.32;;;;;;;19.19;85.35;99895.66;4898627;29;20083;-64
2023/06/10 00:51:16;;;;;;;7.90;5.13;;;;;;;19.27;84.28;99906.09;4915470;29;20020;-65
2023/06/10 00:53:42;;;;;;;10.48;4.97;;;;;;;19.17;83.97;99885.22;4915618;29;20032;-66
2023/06/10 00:56:08;;;;;;;11.10;4.82;;;;;;;19.27;84.21;99896.47;4915833;29;20539;-66
2023/06/10 00:58:33;;;;;;;7.55;4.50;;;;;;;19.43;83.81;99906.81;4915713;29;20056;-70
2023/06/10 01:00:59;;;;;;;9.65;5.28;;;;;;;19.44;83.45;99893.72;4915404;29;20483;-65
2023/06/10 01:03:24;;;;;;;8.50;5.20;;;;;;;19.45;83.12;99894.59;4914972;29;20031;-66
2023/06/10 01:06:01;;;;;;;12.32;4.78;;;;;;;18.84;83.33;99802.59;4915475;29;20032;-66
2023/06/10 01:08:50;;;;;;;8.00;4.90;;;;;;;19.46;81.87;99897.19;4915221;29;20032;-66
2023/06/10 01:11:24;;;;;;;8.85;5.00;;;;;;;19.34;82.65;99897.28;4915208;29;20487;-66
2023/06/10 01:13:51;;;;;;;9.07;4.78;;;;;;;19.22;83.58;99893.88;4915105;29;20040;-65
2023/06/10 01:16:19;;;;;;;9.45;4.90;;;;;;;19.13;84.23;99893.97;4915357;29;20475;-66
2023/06/10 01:18:44;;;;;;;8.48;4.80;;;;;;;19.10;84.27;99898.34;4915536;29;20495;-66
2023/06/10 01:21:14;;;;;;;10.52;4.95;;;;;;;19.04;83.61;99899.25;4915421;29;20031;-66
2023/06/10 01:23:40;;;;;;;9.15;5.53;;;;;;;19.10;83.33;99898.34;4915270;29;20024;-65
2023/06/10 01:26:10;;;;;;;7.57;4.43;;;;;;;19.07;83.39;99883.56;4914976;29;20099;-67
2023/06/10 01:28:54;;;;;;;6.82;4.55;;;;;;;18.99;83.50;99864.41;4915508;29;20028;-64
2023/06/10 01:31:49;;;;;;;8.68;5.18;;;;;;;18.98;83.13;99867.91;4915592;29;20088;-66
2023/06/10 01:34:18;;;;;;;10.20;4.80;;;;;;;19.00;84.12;99893.16;4915327;29;20092;-66
2023/06/10 01:36:49;;;;;;;13.40;5.40;;;;;;;18.52;85.72;99807.19;4915178;29;20028;-67
2023/06/10 01:39:16;;;;;;;8.45;5.25;;;;;;;18.91;85.42;99877.56;4914449;29;20038;-66
2023/06/10 01:41:42;;;;;;;7.60;5.07;;;;;;;18.92;84.83;99881.91;4915453;29;20111;-66
2023/06/10 01:44:08;;;;;;;6.55;4.78;;;;;;;18.92;84.87;99874.91;4915452;29;20138;-66
2023/06/10 01:46:33;;;;;;;10.68;5.13;;;;;;;18.98;84.39;99873.13;4915219;29;20052;-66
2023/06/10 01:48:59;;;;;;;13.32;5.55;;;;;;;19.03;83.94;99881.84;4914590;29;20373;-66
2023/06/10 01:51:24;;;;;;;9.77;4.72;;;;;;;18.99;83.67;99881.00;4914941;29;20059;-66
2023/06/10 01:53:50;;;;;;;7.55;4.85;;;;;;;18.84;84.56;99871.47;4914988;29;20039;-66
2023/06/10 01:56:16;;;;;;;11.90;5.22;;;;;;;18.72;83.63;99864.56;4915266;29;20467;-65
2023/06/10 01:58:42;;;;;;;8.85;4.85;;;;;;;18.79;83.60;99875.00;4914578;29;20119;-66
2023/06/10 02:01:08;;;;;;;10.25;4.97;;;;;;;18.87;83.40;99886.28;4914437;29;20561;-65
2023/06/10 02:03:33;;;;;;;9.27;5.00;;;;;;;18.88;83.22;99888.88;4914763;29;20028;-65
2023/06/10 02:05:58;;;;;;;9.90;5.10;;;;;;;18.87;83.34;99897.59;4914806;29;20376;-65
2023/06/10 02:08:24;;;;;;;8.88;5.10;;;;;;;18.71;84.31;99895.97;4880968;29;20074;-66
2023/06/10 02:10:49;;;;;;;8.88;5.30;;;;;;;18.11;85.64;99830.03;4914685;29;20471;-66
2023/06/10 02:13:15;;;;;;;6.97;4.53;;;;;;;18.50;86.40;99900.41;4914865;29;20176;-69
2023/06/10 02:15:40;;;;;;;7.65;5.10;;;;;;;18.16;88.80;99905.78;4914661;29;20032;-70
2023/06/10 02:18:06;;;;;;;11.10;4.90;;;;;;;17.54;90.16;99835.41;4914535;29;20034;-66
2023/06/10 02:20:31;;;;;;;8.05;5.00;;;;;;;17.09;94.62;99912.81;4914307;29;20119;-67
2023/06/10 02:22:57;;;;;;;8.27;4.93;;;;;;;17.12;94.62;99900.66;4914824;29;20028;-66
2023/06/10 02:25:23;;;;;;;10.45;5.18;;;;;;;17.38;94.50;99927.63;4914182;29;20047;-66
2023/06/10 02:27:48;;;;;;;10.88;5.47;;;;;;;17.45;94.23;99916.31;4914503;29;20029;-66
2023/06/10 02:30:14;;;;;;;9.88;5.00;;;;;;;17.51;93.65;99892.81;4914211;29;20032;-65
2023/06/10 02:32:40;;;;;;;9.35;4.55;;;;;;;17.77;92.40;99911.06;4913909;29;20554;-65
2023/06/10 02:35:06;;;;;;;10.65;5.30;;;;;;;17.85;91.37;99911.03;4914283;29;20091;-69
2023/06/10 02:37:31;;;;;;;8.75;5.38;;;;;;;17.86;91.08;99909.31;4914434;29;20036;-66
2023/06/10 02:39:57;;;;;;;9.00;4.43;;;;;;;17.94;90.31;99907.56;4914345;29;20028;-65
2023/06/10 02:42:22;;;;;;;8.27;4.65;;;;;;;18.03;89.61;99911.91;4914033;29;20793;-66
2023/06/10 02:44:48;;;;;;;10.73;4.88;;;;;;;18.08;89.43;99910.16;4914006;29;20067;-68
2023/06/10 02:47:13;;;;;;;7.25;4.55;;;;;;;18.15;88.84;99911.88;4894491;29;20024;-67
2023/06/10 02:49:39;;;;;;;11.77;4.50;;;;;;;18.17;89.04;99910.13;4914208;29;20036;-67
2023/06/10 02:52:06;;;;;;;9.60;4.90;;;;;;;18.20;89.20;99920.56;4914146;29;20028;-67
2023/06/10 02:54:32;;;;;;;8.40;4.63;;;;;;;18.30;88.46;99918.78;4913852;29;20032;-66
2023/06/10 02:56:57;;;;;;;9.43;5.07;;;;;;;18.43;87.84;99923.09;4913881;29;20034;-66
2023/06/10 02:59:23;;;;;;;7.90;5.18;;;;;;;18.41;88.25;99924.00;4914378;29;20028;-64
2023/06/10 03:01:48;;;;;;;11.88;4.55;;;;;;;18.43;87.88;99928.34;4914156;29;20020;-66
2023/06/10 03:04:14;;;;;;;7.40;4.72;;;;;;;18.43;88.01;99915.25;4914056;29;20032;-65
2023/06/10 03:06:42;;;;;;;7.10;4.63;;;;;;;18.01;88.37;99851.84;4913861;29;20047;-66
2023/06/10 03:09:08;;;;;;;7.53;4.63;;;;;;;18.27;87.51;99892.69;4914024;29;20111;-67
2023/06/10 03:11:33;;;;;;;8.45;4.88;;;;;;;18.19;89.38;99921.44;4914161;29;20575;-66
2023/06/10 03:13:59;;;;;;;8.38;4.90;;;;;;;18.02;90.80;99926.72;4914243;29;20113;-68
2023/06/10 03:16:27;;;;;;;6.65;4.50;;;;;;;17.93;91.95;99934.53;4913572;29;20060;-66
2023/06/10 03:18:53;;;;;;;8.43;5.10;;;;;;;17.90;92.60;99930.19;4914090;29;20028;-66
2023/06/10 03:21:19;;;;;;;9.52;5.28;;;;;;;17.99;92.87;99931.09;4913720;29;20036;-66
2023/06/10 03:23:45;;;;;;;10.68;5.05;;;;;;;18.15;91.36;99927.53;4914092;29;20051;-67
2023/06/10 03:26:12;;;;;;;9.25;4.85;;;;;;;18.21;90.53;99924.91;4913613;29;20488;-67
2023/06/10 03:28:37;;;;;;;11.20;4.78;;;;;;;18.27;90.24;99921.44;4913610;29;20032;-66
2023/06/10 03:31:03;;;;;;;7.68;4.40;;;;;;;18.28;91.17;99925.78;4913737;29;20464;-67
2023/06/10 03:33:28;;;;;;;8.52;4.70;;;;;;;18.38;91.01;99918.75;4913965;29;20039;-67
2023/06/10 03:35:53;;;;;;;6.95;4.78;;;;;;;18.27;91.15;99900.53;4913588;29;20494;-66
2023/06/10 03:38:19;;;;;;;10.35;4.90;;;;;;;18.41;91.44;99918.75;4913828;29;20028;-66
2023/06/10 03:40:44;;;;;;;8.82;5.53;;;;;;;17.93;91.94;99851.84;4913846;29;20068;-67
2023/06/10 03:43:10;;;;;;;11.43;5.68;;;;;;;18.23;91.67;99902.28;4913873;29;20031;-64
2023/06/10 03:45:36;;;;;;;8.20;5.07;;;;;;;18.20;91.41;99915.34;4913596;29;20052;-68
2023/06/10 03:48:03;;;;;;;9.68;4.82;;;;;;;18.21;92.37;99914.47;4913903;29;20447;-69
2023/06/10 03:50:28;;;;;;;12.20;5.50;;;;;;;18.21;92.75;99911.00;4913765;29;20115;-67
2023/06/10 03:52:54;;;;;;;9.35;5.10;;;;;;;18.11;93.52;99913.63;4913334;29;20527;-66
2023/06/10 03:55:21;;;;;;;8.75;5.55;;;;;;;17.98;95.30;99918.88;4913381;29;20665;-67
2023/06/10 03:57:47;;;;;;;10.68;5.28;;;;;;;17.89;95.73;99902.31;4913536;29;20028;-66
2023/06/10 04:00:13;;;;;;;10.40;5.40;;;;;;;18.00;96.17;99912.78;4881005;29;20025;-66
2023/06/10 04:02:45;;;;;;;7.85;4.85;;;;;;;17.98;96.46;99906.72;4916012;29;20487;-68
2023/06/10 04:05:15;;;;;;;7.00;5.28;;;;;;;17.98;97.36;99908.44;4917017;29;20080;-66
2023/06/10 04:07:42;;;;;;;7.72;5.13;;;;;;;18.05;96.45;99902.34;4916981;29;20036;-66
2023/06/10 04:10:08;;;;;;;15.80;6.38;;;;;;;18.22;96.16;99923.19;4916895;29;20099;-70
2023/06/10 04:12:34;;;;;;;8.25;5.80;;;;;;;18.04;96.88;99924.09;4916861;29;20071;-65
2023/06/10 04:15:00;;;;;;;12.35;6.40;;;;;;;17.51;97.64;99851.06;4916673;29;20035;-66
2023/06/10 04:17:25;;;;;;;13.23;8.02;;;;;;;17.48;98.35;99852.81;4916438;29;20033;-67
2023/06/10 04:19:51;;;;;;;14.93;8.82;;;;;;;17.83;99.09;99915.44;4916732;29;20040;-67
2023/06/10 04:22:17;;;;;;;14.35;8.60;;;;;;;17.41;99.68;99844.13;4916800;29;20043;-70
2023/06/10 04:24:43;;;;;;;11.88;7.53;;;;;;;17.95;99.93;99920.63;4899761;29;20460;-66
2023/06/10 04:27:08;;;;;;;12.98;8.00;;;;;;;18.03;100.00;99922.34;4899648;29;20517;-68
2023/06/10 04:29:34;;;;;;;10.77;7.10;;;;;;;18.06;100.00;99922.38;4916553;29;20036;-64
2023/06/10 04:32:01;;;;;;;17.30;7.85;;;;;;;17.85;100.00;99871.88;4916466;29;20028;-66
2023/06/10 04:34:27;;;;;;;14.75;7.93;;;;;;;18.33;99.83;99926.63;4916601;29;20032;-66
2023/06/10 04:36:52;;;;;;;14.85;7.53;;;;;;;18.44;98.71;99929.19;4916383;29;20550;-65
2023/06/10 04:39:18;;;;;;;10.52;7.03;;;;;;;18.39;98.10;99907.44;4916199;29;20039;-67
2023/06/10 04:41:43;;;;;;;11.27;6.40;;;;;;;18.44;98.51;99908.28;4916134;29;20036;-67
2023/06/10 04:44:10;;;;;;;9.60;6.53;;;;;;;18.34;98.04;99890.91;4916027;29;20039;-66
2023/06/10 04:46:35;;;;;;;9.40;5.95;;;;;;;18.47;97.41;99921.34;4916406;29;20138;-66
2023/06/10 04:49:01;;;;;;;14.05;7.07;;;;;;;18.42;98.20;99928.34;4915970;29;20116;-70
2023/06/10 04:51:28;;;;;;;16.48;6.97;;;;;;;18.19;100.00;99918.81;4912920;29;20036;-66
2023/06/10 04:53:53;;;;;;;9.63;7.43;;;;;;;18.36;99.24;99915.31;4916187;29;20032;-66
2023/06/10 04:56:19;;;;;;;10.10;7.07;;;;;;;17.84;99.81;99843.16;4896562;29;20558;-64
2023/06/10 04:58:44;;;;;;;13.85;7.32;;;;;;;18.11;100.00;99918.84;4898976;29;20025;-66
2023/06/10 05:01:09;;;;;;;12.95;8.25;;;;;;;18.17;100.00;99917.97;4915751;29;20044;-68
2023/06/10 05:03:35;;;;;;;12.68;8.25;;;;;;;17.73;100.00;99905.84;4915936;29;20035;-67
2023/06/10 05:06:02;;;;;;;14.48;7.88;;;;;;;18.15;100.00;99916.25;4915578;29;20079;-67
2023/06/10 05:08:27;;;;;;;11.77;8.10;;;;;;;18.39;100.00;99910.94;4915660;29;20068;-70
2023/06/10 05:10:52;;;;;;;15.18;7.38;;;;;;;18.55;100.00;99908.25;4915625;29;20024;-66
2023/06/10 05:13:18;;;;;;;16.65;7.63;;;;;;;18.73;100.00;99915.13;4913848;29;20024;-70
2023/06/10 05:15:44;;;;;;;14.60;8.10;;;;;;;18.83;100.00;99910.69;4915638;29;20028;-67
2023/06/10 05:18:12;;;;;;;10.32;7.63;;;;;;;18.93;100.00;99912.44;4915600;29;20495;-68
2023/06/10 05:20:38;;;;;;;10.77;7.47;;;;;;;18.91;100.00;99903.72;4915071;29;20078;-66
2023/06/10 05:23:03;;;;;;;12.57;7.70;;;;;;;19.09;100.00;99913.19;4915461;29;20059;-66
2023/06/10 05:25:32;;;;;;;24.45;8.25;;;;;;;19.32;99.43;99914.78;4915511;29;20035;-68
2023/06/10 05:27:58;;;;;;;11.38;8.13;;;;;;;19.39;99.50;99906.00;4915024;29;20036;-69
2023/06/10 05:30:24;;;;;;;16.80;9.27;;;;;;;19.50;99.85;99918.97;4915677;29;20038;-65
2023/06/10 05:32:51;;;;;;;24.27;9.95;;;;;;;19.52;100.00;99918.06;4915252;29;20472;-68
2023/06/10 05:35:17;;;;;;;22.27;11.25;;;;;;;19.55;100.00;99915.44;4866646;29;20099;-66
2023/06/10 05:37:43;;;;;;;13.88;8.50;;;;;;;19.59;98.82;99905.81;4914827;29;20032;-66
2023/06/10 05:40:09;;;;;;;23.13;9.02;;;;;;;19.50;100.00;99904.16;4897889;29;20035;-70
2023/06/10 05:42:35;;;;;;;17.80;9.90;;;;;;;19.55;100.00;99883.13;4915026;29;20087;-65
2023/06/10 05:45:00;;;;;;;15.77;9.38;;;;;;;19.70;100.00;99895.22;4914787;29;20056;-66
2023/06/10 05:47:26;;;;;;;13.10;9.23;;;;;;;19.82;100.00;99900.34;4915151;29;20092;-72
2023/06/10 05:49:51;;;;;;;13.73;8.52;;;;;;;19.93;99.73;99896.78;4915086;29;20036;-69
2023/06/10 05:52:18;;;;;;;15.93;7.95;;;;;;;20.00;98.56;99894.06;4911726;29;20043;-66
2023/06/10 05:54:43;;;;;;;11.55;9.25;;;;;;;19.85;96.46;99902.97;4904350;29;20029;-68
2023/06/10 05:57:10;;;;;;;13.93;8.55;;;;;;;19.98;96.27;99895.84;4899639;29;20040;-65
2023/06/10 05:59:35;;;;;;;13.95;9.07;;;;;;;19.81;96.88;99885.53;4896045;29;20092;-68
2023/06/10 06:02:01;;;;;;;18.20;8.82;;;;;;;19.82;96.63;99883.75;4895777;29;20036;-66
2023/06/10 06:04:26;;;;;;;296.20;96.63;;;;;;;19.69;96.16;99828.03;4862577;29;20046;-66
2023/06/10 06:06:52;;;;;;;87.88;33.53;;;;;;;20.29;96.46;99886.75;4895970;29;20031;-69
2023/06/10 06:09:17;;;;;;;33.60;15.65;;;;;;;20.51;96.18;99888.22;4895836;29;20039;-65
2023/06/10 06:11:42;;;;;;;65.20;26.90;;;;;;;20.72;97.13;99888.81;4912340;29;20020;-66
2023/06/10 06:14:08;;;;;;;23.77;13.23;;;;;;;20.93;96.67;99876.28;4904640;29;20024;-67
2023/06/10 06:16:33;;;;;;;17.77;10.98;;;;;;;20.96;95.76;99882.38;4904092;29;20409;-66
2023/06/10 06:18:59;;;;;;;20.33;10.90;;;;;;;20.78;94.37;99822.31;4914401;29;20040;-65
2023/06/10 06:21:24;;;;;;;13.45;9.70;;;;;;;21.25;93.82;99885.44;4914276;29;20035;-68
2023/06/10 06:23:50;;;;;;;13.55;10.00;;;;;;;21.31;95.37;99874.81;4913885;29;20046;-66
2023/06/10 06:26:15;;;;;;;12.05;9.70;;;;;;;21.44;97.69;99878.94;4914075;29;20035;-65
2023/06/10 06:28:40;;;;;;;12.93;10.07;;;;;;;21.44;98.37;99884.19;4897628;29;20068;-69
2023/06/10 06:31:07;;;;;;;26.90;14.95;;;;;;;21.58;96.02;99880.50;4914639;29;20055;-68
2023/06/10 06:33:32;;;;;;;19.85;11.65;;;;;;;21.71;95.36;99879.41;4914125;29;20032;-67
2023/06/10 06:36:00;;;;;;;13.75;8.57;;;;;;;21.72;94.23;99875.88;4897548;29;20040;-67
2023/06/10 06:38:26;;;;;;;13.75;8.57;;;;;;;21.74;91.32;99879.31;4900098;29;20036;-69
2023/06/10 06:40:51;;;;;;;9.90;6.88;;;;;;;21.86;83.55;99872.09;4903033;29;20127;-68
2023/06/10 06:43:18;;;;;;;9.93;7.57;;;;;;;21.97;85.32;99876.28;4904487;29;20028;-67
2023/06/10 06:45:44;;;;;;;12.25;6.80;;;;;;;21.90;83.16;99866.75;4905248;29;20575;-63
2023/06/10 06:48:10;;;;;;;11.57;6.95;;;;;;;22.09;81.79;99869.03;4885389;29;20028;-69
2023/06/10 06:50:36;;;;;;;10.57;7.07;;;;;;;22.22;82.37;99864.38;4904228;29;20546;-64
2023/06/10 06:53:02;;;;;;;10.32;7.15;;;;;;;22.32;84.56;99862.41;4904875;29;20057;-64
2023/06/10 06:55:28;;;;;;;10.98;6.80;;;;;;;22.42;84.99;99859.59;4902875;29;20048;-69
2023/06/10 06:57:53;;;;;;;14.65;7.88;;;;;;;22.48;83.72;99857.72;4904847;29;20046;-69
2023/06/10 07:00:19;;;;;;;12.32;5.95;;;;;;;22.58;81.71;99856.63;4904429;29;20472;-66
2023/06/10 07:02:44;;;;;;;9.52;5.80;;;;;;;22.54;84.04;99847.06;4903141;29;20037;-67
2023/06/10 07:05:10;;;;;;;9.73;6.22;;;;;;;22.51;82.39;99828.75;4905437;29;20028;-66
2023/06/10 07:07:35;;;;;;;9.25;5.28;;;;;;;22.58;82.96;99852.25;4903695;29;20028;-68
2023/06/10 07:10:03;;;;;;;8.93;4.70;;;;;;;22.58;80.84;99854.88;4903682;29;20024;-69
2023/06/10 07:12:29;;;;;;;8.23;4.38;;;;;;;22.52;80.45;99851.50;4904954;29;20027;-69
2023/06/10 07:14:54;;;;;;;8.07;4.45;;;;;;;22.71;77.00;99852.81;4903715;29;20033;-70
2023/06/10 07:17:20;;;;;;;8.45;4.30;;;;;;;22.74;78.23;99855.41;4905195;29;20035;-67
2023/06/10 07:19:46;;;;;;;9.68;4.40;;;;;;;22.69;75.29;99856.38;4914002;29;20028;-65
2023/06/10 07:22:11;;;;;;;7.40;4.38;;;;;;;22.58;76.19;99835.56;4912401;29;20115;-68
2023/06/10 07:24:37;;;;;;;11.93;5.25;;;;;;;22.77;76.11;99849.19;4899711;29;20422;-68
2023/06/10 07:27:02;;;;;;;7.95;4.03;;;;;;;22.80;74.22;99819.31;4894908;29;20028;-64
2023/06/10 07:29:28;;;;;;;9.02;4.57;;;;;;;23.01;73.16;99845.09;4895023;29;20040;-67
2023/06/10 07:31:54;;;;;;;7.25;4.40;;;;;;;22.98;73.17;99839.03;4895154;29;20531;-66
2023/06/10 07:34:19;;;;;;;8.90;4.28;;;;;;;22.93;73.29;99826.88;4895300;29;20039;-68
2023/06/10 07:36:44;;;;;;;10.65;4.20;;;;;;;23.06;75.03;99840.56;4907229;29;20040;-68
2023/06/10 07:39:10;;;;;;;7.25;4.30;;;;;;;23.06;73.45;99843.22;4899542;29;20032;-66
2023/06/10 07:41:35;;;;;;;6.95;4.13;;;;;;;23.06;71.38;99852.88;4907652;29;20028;-67
2023/06/10 07:44:01;;;;;;;8.70;4.40;;;;;;;23.13;76.04;99849.22;4906723;29;20037;-65
2023/06/10 07:46:27;;;;;;;7.20;4.05;;;;;;;23.18;73.09;99843.84;4898694;29;20044;-66
2023/06/10 07:48:53;;;;;;;8.13;4.55;;;;;;;23.18;73.99;99846.47;4908989;29;20092;-66
2023/06/10 07:51:19;;;;;;;14.73;4.20;;;;;;;23.31;72.46;99860.22;4932730;29;20118;-69
2023/06/10 07:53:44;;;;;;;8.77;4.55;;;;;;;23.19;73.92;99835.03;4935827;29;20380;-64
2023/06/10 07:56:10;;;;;;;8.00;4.32;;;;;;;23.23;72.61;99836.72;4936241;29;20028;-67
2023/06/10 07:58:35;;;;;;;11.02;4.20;;;;;;;23.43;74.24;99849.34;4920417;29;20044;-64
2023/06/10 08:01:00;;;;;;;12.57;4.50;;;;;;;23.52;73.37;99848.25;4901896;29;20506;-65
2023/06/10 08:03:26;;;;;;;5.78;3.88;;;;;;;23.51;73.44;99846.53;4917463;29;20020;-65
2023/06/10 08:05:51;;;;;;;5.85;4.03;;;;;;;23.67;71.68;99847.81;4900373;29;20126;-66
2023/06/10 08:08:17;;;;;;;8.40;4.10;;;;;;;23.67;70.01;99828.53;4917052;29;20471;-67
2023/06/10 08:10:42;;;;;;;6.53;4.30;;;;;;;23.73;69.44;99842.38;4916941;29;20024;-65
2023/06/10 08:13:08;;;;;;;9.40;4.18;;;;;;;23.90;69.33;99835.78;4917006;29;20040;-68
2023/06/10 08:15:34;;;;;;;11.43;4.18;;;;;;;23.94;70.96;99829.56;4898901;29;20415;-66
2023/06/10 08:17:59;;;;;;;6.10;4.53;;;;;;;24.06;70.62;99834.47;4917043;29;20024;-70
2023/06/10 08:20:25;;;;;;;6.60;3.78;;;;;;;24.10;68.19;99829.09;4898699;29;20479;-71
2023/06/10 08:22:50;;;;;;;8.70;3.58;;;;;;;24.34;67.77;99840.72;4899882;29;20040;-65
2023/06/10 08:25:16;;;;;;;5.50;3.92;;;;;;;24.14;68.32;99770.06;4916783;29;20099;-68
2023/06/10 08:27:41;;;;;;;7.03;3.65;;;;;;;24.64;65.89;99824.84;4916988;29;20724;-66
2023/06/10 08:30:08;;;;;;;5.80;3.88;;;;;;;24.77;62.54;99825.34;4916764;29;20028;-71
2023/06/10 08:32:33;;;;;;;8.80;4.20;;;;;;;24.89;67.34;99826.72;4900104;29;20029;-68
2023/06/10 08:34:59;;;;;;;5.18;3.47;;;;;;;25.04;64.87;99813.88;4916895;29;20051;-69
2023/06/10 08:37:25;;;;;;;6.68;3.90;;;;;;;25.19;62.28;99815.13;4916839;29;20478;-67
2023/06/10 08:39:50;;;;;;;7.22;3.75;;;;;;;25.42;60.59;99817.91;4916288;29;20039;-65
2023/06/10 08:42:36;;;;;;;7.25;3.90;;;;;;;25.55;62.08;99813.09;4916656;29;20048;-68
2023/06/10 08:45:03;;;;;;;8.90;4.07;;;;;;;25.67;60.97;99817.91;4916472;29;20526;-67
2023/06/10 08:47:31;;;;;;;6.82;3.45;;;;;;;25.79;57.02;99816.59;4916048;29;20032;-66
2023/06/10 08:50:03;;;;;;;8.52;3.70;;;;;;;25.87;59.32;99803.09;4916458;29;20471;-66
2023/06/10 08:52:35;;;;;;;6.43;3.72;;;;;;;25.98;59.56;99780.63;4916422;29;20028;-65
2023/06/10 08:55:05;;;;;;;6.43;4.00;;;;;;;26.13;57.33;99800.38;4916566;29;20042;-65
2023/06/10 08:57:30;;;;;;;5.88;3.67;;;;;;;26.21;53.59;99792.13;4916503;29;20119;-66
2023/06/10 08:59:57;;;;;;;4.93;3.60;;;;;;;26.03;52.69;99783.06;4882604;29;20131;-66
2023/06/10 09:02:24;;;;;;;6.53;3.72;;;;;;;26.16;56.80;99797.59;4915863;29;20034;-68
2023/06/10 09:04:51;;;;;;;5.63;3.30;;;;;;;26.13;55.88;99788.91;4916164;29;20040;-65
2023/06/10 09:07:17;;;;;;;6.78;2.90;;;;;;;26.24;52.32;99773.47;4882431;29;20423;-68
2023/06/10 09:09:44;;;;;;;7.85;3.55;;;;;;;26.09;55.80;99723.84;4916137;29;20028;-66
2023/06/10 09:12:10;;;;;;;5.88;3.42;;;;;;;26.48;54.70;99771.66;4916058;29;20579;-64
2023/06/10 09:14:36;;;;;;;10.73;5.53;;;;;;;26.63;52.74;99778.13;4915989;29;20123;-67
2023/06/10 09:17:03;;;;;;;7.00;4.43;;;;;;;26.62;52.38;99764.94;4915660;29;20144;-69
2023/06/10 09:19:29;;;;;;;6.10;3.72;;;;;;;26.76;53.86;99769.69;4898942;29;20112;-66
2023/06/10 09:21:55;;;;;;;5.88;3.72;;;;;;;26.89;53.22;99773.56;4915713;29;20032;-67
2023/06/10 09:24:24;;;;;;;16.20;8.43;;;;;;;26.91;53.93;99766.41;4915615;29;20414;-64
2023/06/10 09:26:50;;;;;;;6.82;3.80;;;;;;;26.94;52.66;99770.72;4915773;29;20032;-69
2023/06/10 09:29:17;;;;;;;7.22;4.15;;;;;;;27.08;57.30;99764.84;4915390;29;20028;-65
2023/06/10 09:31:44;;;;;;;8.30;4.20;;;;;;;27.13;55.08;99768.16;4915669;29;20032;-67
2023/06/10 09:34:12;;;;;;;5.93;3.92;;;;;;;27.23;51.36;99766.81;4915360;29;20466;-65
2023/06/10 09:36:39;;;;;;;7.97;3.90;;;;;;;27.30;51.34;99770.06;4915182;29;20047;-67
2023/06/10 09:39:15;;;;;;;12.27;3.88;;;;;;;27.38;49.49;99759.13;4915413;29;20031;-69
2023/06/10 09:41:41;;;;;;;6.68;3.20;;;;;;;27.27;55.17;99723.34;4877597;29;20423;-67
2023/06/10 09:44:19;;;;;;;6.22;4.10;;;;;;;27.75;49.43;99762.78;4878814;29;20036;-64
2023/06/10 09:46:50;;;;;;;8.43;3.97;;;;;;;27.81;51.72;99767.81;4903388;29;20032;-66
2023/06/10 09:49:16;;;;;;;8.65;4.15;;;;;;;27.71;48.17;99758.56;4908223;29;20055;-66
2023/06/10 09:51:52;;;;;;;5.93;3.42;;;;;;;27.34;47.11;99753.09;4905802;29;20032;-66
2023/06/10 09:54:18;;;;;;;6.90;4.15;;;;;;;27.54;53.41;99751.38;4905986;29;20032;-69
2023/06/10 09:56:48;;;;;;;7.30;3.90;;;;;;;27.60;51.43;99754.63;4905084;29;20033;-68
2023/06/10 09:59:14;;;;;;;7.35;3.60;;;;;;;27.62;49.91;99748.41;4902975;29;20036;-66
2023/06/10 10:01:40;;;;;;;9.18;3.95;;;;;;;27.38;50.92;99679.63;4905145;29;20032;-68
2023/06/10 10:04:05;;;;;;;5.55;3.53;;;;;;;27.98;47.43;99745.81;4906759;29;20055;-68
2023/06/10 10:06:32;;;;;;;8.07;3.83;;;;;;;28.10;48.71;99744.38;4904112;29;20033;-69
2023/06/10 10:08:58;;;;;;;18.52;7.68;;;;;;;28.24;48.05;99743.75;4905337;29;20107;-67
2023/06/10 10:11:25;;;;;;;7.40;3.70;;;;;;;28.18;47.15;99699.78;4923730;29;20122;-68
2023/06/10 10:13:51;;;;;;;13.27;6.57;;;;;;;28.40;45.73;99725.28;4933717;29;20049;-66
2023/06/10 10:16:22;;;;;;;6.88;3.58;;;;;;;28.38;46.70;99743.94;4933749;29;20083;-66
2023/06/10 10:18:58;;;;;;;6.60;3.90;;;;;;;28.02;46.13;99704.09;4933436;29;20475;-75
2023/06/10 10:21:31;;;;;;;11.18;3.72;;;;;;;28.53;47.17;99741.47;4910543;29;20040;-69
2023/06/10 10:24:03;;;;;;;10.90;3.83;;;;;;;28.75;46.35;99743.06;4903689;29;20087;-69
2023/06/10 10:26:31;;;;;;;7.55;4.45;;;;;;;28.99;46.21;99739.16;4904068;29;20032;-71
2023/06/10 10:29:18;;;;;;;6.70;3.60;;;;;;;28.69;42.93;99646.84;4821788;29;20051;-68
2023/06/10 10:31:46;;;;;;;5.15;3.63;;;;;;;29.40;43.30;99735.31;4898833;29;20028;-68
2023/06/10 10:34:35;;;;;;;6.55;3.60;;;;;;;29.29;44.63;99743.84;4913938;29;20064;-69
2023/06/10 10:37:01;;;;;;;8.25;3.83;;;;;;;29.10;44.66;99743.06;4914144;29;20031;-68
2023/06/10 10:39:28;;;;;;;6.10;4.00;;;;;;;28.73;44.15;99735.19;4914167;29;20036;-67
2023/06/10 10:41:55;;;;;;;5.68;3.67;;;;;;;28.76;44.78;99744.78;4914336;29;20039;-68
2023/06/10 10:44:21;;;;;;;12.98;3.92;;;;;;;28.94;44.12;99741.22;4896931;29;20074;-74
2023/06/10 10:46:51;;;;;;;8.18;3.55;;;;;;;29.39;43.10;99733.59;4914324;29;20067;-66
2023/06/10 10:49:17;;;;;;;8.27;4.32;;;;;;;29.66;45.45;99736.56;4914347;29;20040;-66
2023/06/10 10:52:05;;;;;;;5.95;3.63;;;;;;;29.83;41.29;99733.00;4914092;29;20475;-67
2023/06/10 10:54:31;;;;;;;5.90;3.47;;;;;;;29.72;42.45;99684.84;4914584;29;20032;-67
2023/06/10 10:57:09;;;;;;;7.32;3.80;;;;;;;29.94;39.95;99731.56;4914421;29;20028;-70
2023/06/10 10:59:46;;;;;;;5.43;3.55;;;;;;;30.16;40.87;99726.75;4914314;29;20040;-67
2023/06/10 11:02:42;;;;;;;5.93;3.40;;;;;;;30.23;40.51;99721.06;4914230;29;20039;-68
2023/06/10 11:05:09;;;;;;;5.80;3.72;;;;;;;30.17;41.18;99722.28;4914147;29;20681;-70
2023/06/10 11:07:37;;;;;;;7.85;3.88;;;;;;;29.99;40.65;99729.50;4914044;29;20427;-68
2023/06/10 11:10:09;;;;;;;7.78;4.07;;;;;;;29.42;40.29;99661.63;4914451;29;20024;-70
2023/06/10 11:12:42;;;;;;;6.65;3.80;;;;;;;29.94;41.55;99718.25;4918469;29;20039;-66
2023/06/10 11:15:08;;;;;;;6.60;4.20;;;;;;;30.13;42.49;99716.28;4918000;29;20059;-70
2023/06/10 11:17:33;;;;;;;8.68;3.72;;;;;;;30.42;41.15;99718.19;4917876;29;20574;-67
2023/06/10 11:19:59;;;;;;;6.88;3.83;;;;;;;30.56;40.26;99704.97;4917476;29;20036;-67
2023/06/10 11:22:25;;;;;;;5.82;3.30;;;;;;;30.42;37.77;99712.88;4917618;29;20494;-68
2023/06/10 11:24:51;;;;;;;6.22;3.35;;;;;;;30.20;37.29;99710.63;4917857;29;20044;-68
2023/06/10 11:27:20;;;;;;;5.22;3.50;;;;;;;30.12;36.73;99711.91;4917956;29;20033;-67